Portada
METAR-TAF:

METAR-TAF

Aeroports :

Vladivostok, Rússia

latitud: 43-07N, longitud: 131-56E, altitud: 184 m

Observació

L'informe es va fer fa 35 minuts, a les 16:00 UTC
Vent 4 kt del Nord-Est
Temperatura -9°C
Humitat 73%
Pressió 1025 hPa
Visibilitat 10 km o més
Cel ennuvolat a una alçada de 2600 ft

METAR: UHWW 211600Z 05002MPS 9999 BKN026 M09/M13 Q1025 R07R/0///70 NOSIG RMK QFE768

Hora: 02:35 (16:35 UTC)

Pronòstic

L'informe es va fer fa 2 hores i 35 minuts, a les 14:00 UTC
Pronòstic vàlid del 21 a les 15 UTC al 22 a les 15 UTC
Vent 2 kt amb direcció variable
Visibilitat: 5000 m
Cel ennuvolat a una alçada de 3000 ft
fum
Evolucionant progressivament
l' 21 a les 17 UTC al 21 a les 19 UTC
Visibilitat: 3000 m
boirina
A partir de les 22 a les 0100 UTC
Vent 6 kt del Nord
Visibilitat 10 km o més
Núvols disperses a una alçada de 4000 ft

TAF: UHWW 211400Z 2115/2215 VRB01MPS 5000 FU BKN030 BECMG 2117/2119 3000 BR FM220100 01003MPS 9999 SCT040

Observacions i pronòstics meteorològics de més de 4000 aeroports (METAR i TAF).

Les estacions disponibles són els punts grocs i vermells al mapa.

Posi el ratolí al punt desitjat per veure el nom de l'estació.

Feu clic per veure les observacions i els pronòstics meteorològics.

Per canviar el mapa: feu clic els botons verds amb una creu de color negre per apropar; al botó verd amb un guió per allunyar la imatge; o en les fletxes verdes per a mapes adjacents.


METAR-TAF: